Time;durP1;ratioP1;P1;durP2;ratioP2;P2;SDS_P1;SDS_P2;PMS_P1;PMS_P2;Temp;Humidity;BMP_temperature;BMP_pressure;BME280_temperature;BME280_humidity;BME280_pressure;Samples;Min_cycle;Max_cycle;Signal;HPM_P1;HPM_P2
2023/05/10 00:00:22;;;;;;;24.77;19.25;;;;;;;12.45;100.00;100725.34;5033124;28;20485;-46
2023/05/10 00:02:47;;;;;;;26.17;19.98;;;;;;;12.43;100.00;100731.19;5032025;28;20033;-45
2023/05/10 00:05:13;;;;;;;26.60;20.38;;;;;;;12.41;100.00;100721.56;5032001;28;20088;-45
2023/05/10 00:07:38;;;;;;;26.70;20.13;;;;;;;12.38;100.00;100714.72;5032396;28;20107;-46
2023/05/10 00:10:04;;;;;;;27.33;21.40;;;;;;;12.39;100.00;100721.06;5032265;28;20079;-48
2023/05/10 00:12:29;;;;;;;28.58;21.48;;;;;;;12.33;100.00;100715.66;5032937;28;20434;-46
2023/05/10 00:14:55;;;;;;;27.65;21.73;;;;;;;12.33;100.00;100724.00;5032210;28;20033;-48
2023/05/10 00:17:20;;;;;;;29.30;21.60;;;;;;;12.34;100.00;100713.69;5032385;28;20030;-47
2023/05/10 00:19:45;;;;;;;28.98;22.83;;;;;;;12.31;100.00;100722.69;5032522;28;20568;-46
2023/05/10 00:22:11;;;;;;;30.48;23.40;;;;;;;12.31;100.00;100731.81;5031889;28;20030;-48
2023/05/10 00:24:36;;;;;;;31.88;23.88;;;;;;;12.29;100.00;100716.63;5032699;28;20032;-45
2023/05/10 00:27:03;;;;;;;32.42;23.75;;;;;;;12.29;100.00;100723.00;5032424;28;20183;-46
2023/05/10 00:29:29;;;;;;;32.20;23.48;;;;;;;12.31;100.00;100726.25;5032417;28;20441;-46
2023/05/10 00:31:54;;;;;;;35.72;24.38;;;;;;;12.29;100.00;100736.84;5030273;28;20044;-45
2023/05/10 00:34:20;;;;;;;32.90;24.48;;;;;;;12.27;100.00;100722.50;5032276;28;20040;-45
2023/05/10 00:36:45;;;;;;;31.40;24.58;;;;;;;12.27;100.00;100714.19;5031247;28;20029;-47
2023/05/10 00:39:11;;;;;;;33.83;24.92;;;;;;;12.27;100.00;100722.50;5032079;28;20159;-49
2023/05/10 00:41:36;;;;;;;31.92;23.60;;;;;;;12.27;100.00;100722.50;5032305;28;20032;-46
2023/05/10 00:44:01;;;;;;;32.38;24.13;;;;;;;12.24;100.00;100717.59;5032428;28;20029;-45
2023/05/10 00:46:27;;;;;;;35.30;25.33;;;;;;;12.24;100.00;100719.53;5032417;28;20496;-46
2023/05/10 00:48:53;;;;;;;33.00;25.70;;;;;;;12.19;100.00;100723.28;5032312;28;20025;-46
2023/05/10 00:51:19;;;;;;;34.78;25.95;;;;;;;12.19;100.00;100720.50;5027042;28;20315;-47
2023/05/10 00:53:48;;;;;;;34.60;25.40;;;;;;;12.14;100.00;100724.22;5031778;28;20093;-47
2023/05/10 00:56:13;;;;;;;34.47;25.60;;;;;;;12.07;100.00;100707.25;5039449;28;20415;-45
2023/05/10 00:58:42;;;;;;;34.95;26.65;;;;;;;12.13;100.00;100719.84;5051739;28;20044;-45
2023/05/10 01:01:09;;;;;;;36.08;26.23;;;;;;;12.10;100.00;100714.94;5051674;28;20033;-46
2023/05/10 01:03:35;;;;;;;36.08;27.25;;;;;;;12.11;100.00;100724.06;5051902;28;20025;-48
2023/05/10 01:06:00;;;;;;;34.10;26.30;;;;;;;12.08;100.00;100719.97;5051028;28;20413;-46
2023/05/10 01:08:25;;;;;;;35.72;27.17;;;;;;;12.01;100.00;100714.06;5051141;28;20107;-46
2023/05/10 01:10:52;;;;;;;35.67;26.48;;;;;;;12.00;100.00;100709.66;5051223;28;20057;-46
2023/05/10 01:13:32;;;;;;;34.40;26.65;;;;;;;12.01;100.00;100719.63;5051608;28;20047;-51
2023/05/10 01:15:59;;;;;;;37.65;28.10;;;;;;;11.95;100.00;100709.78;5051593;28;20033;-46
2023/05/10 01:18:26;;;;;;;36.58;27.23;;;;;;;11.98;100.00;100723.03;5051553;28;20388;-47
2023/05/10 01:21:16;;;;;;;36.92;27.92;;;;;;;11.96;100.00;100720.56;5051368;28;20491;-46
2023/05/10 01:24:13;;;;;;;40.38;28.70;;;;;;;11.95;100.00;100720.88;5010313;28;20431;-47
2023/05/10 01:26:53;;;;;;;38.40;28.73;;;;;;;11.92;100.00;100714.00;5050836;28;20049;-47
2023/05/10 01:29:48;;;;;;;39.60;29.27;;;;;;;11.88;100.00;100714.94;5051087;28;20048;-47
2023/05/10 01:32:27;;;;;;;39.63;29.25;;;;;;;11.90;100.00;100723.78;5051117;28;20033;-47
2023/05/10 01:35:16;;;;;;;40.65;30.05;;;;;;;11.87;100.00;100708.59;5051073;28;20598;-47
2023/05/10 01:37:46;;;;;;;40.85;30.02;;;;;;;11.93;100.00;100715.63;5050190;28;20049;-49
2023/05/10 01:40:32;;;;;;;40.83;30.05;;;;;;;11.94;100.00;100708.94;5050847;28;20056;-45
2023/05/10 01:43:03;;;;;;;39.25;30.25;;;;;;;11.97;100.00;100710.25;5050772;28;20040;-45
2023/05/10 01:45:57;;;;;;;42.55;31.75;;;;;;;12.00;100.00;100706.91;5050787;28;20036;-48
2023/05/10 01:48:25;;;;;;;44.55;31.55;;;;;;;12.06;100.00;100718.66;5043696;28;20033;-48
2023/05/10 01:50:51;;;;;;;43.40;31.95;;;;;;;12.09;100.00;100729.13;5050886;28;20147;-46
2023/05/10 01:53:19;;;;;;;44.97;32.65;;;;;;;12.09;100.00;100729.13;5051104;28;20029;-49
2023/05/10 01:55:48;;;;;;;46.78;32.88;;;;;;;12.12;100.00;100726.53;5051047;28;20025;-46
2023/05/10 01:58:18;;;;;;;49.97;33.67;;;;;;;12.14;100.00;100729.78;5049451;28;20439;-48
2023/05/10 02:00:46;;;;;;;51.30;35.33;;;;;;;12.16;100.00;100735.81;5049232;28;20029;-46
2023/05/10 02:03:13;;;;;;;53.38;37.20;;;;;;;12.13;100.00;100733.72;5048978;28;20025;-46
2023/05/10 02:05:40;;;;;;;54.08;35.38;;;;;;;12.17;100.00;100734.69;5048653;28;20041;-46
2023/05/10 02:08:07;;;;;;;53.38;36.08;;;;;;;12.15;100.00;100727.84;5049362;28;20476;-48
2023/05/10 02:10:34;;;;;;;56.92;36.13;;;;;;;12.15;100.00;100728.66;5049644;28;20080;-46
2023/05/10 02:13:02;;;;;;;54.95;36.58;;;;;;;12.15;100.00;100736.97;5049988;28;20029;-46
2023/05/10 02:15:29;;;;;;;56.45;37.03;;;;;;;12.16;100.00;100735.03;5049367;28;20039;-49
2023/05/10 02:17:57;;;;;;;57.50;37.00;;;;;;;12.14;100.00;100735.31;5050503;28;20033;-51
2023/05/10 02:20:25;;;;;;;57.35;36.97;;;;;;;12.16;100.00;100732.25;5050679;28;20051;-46
2023/05/10 02:22:53;;;;;;;58.75;37.75;;;;;;;12.19;100.00;100739.09;5050758;28;20132;-47
2023/05/10 02:25:21;;;;;;;59.65;38.40;;;;;;;12.20;100.00;100741.56;5049347;28;20063;-48
2023/05/10 02:27:48;;;;;;;56.05;38.30;;;;;;;12.21;100.00;100743.19;5050723;28;20060;-48
2023/05/10 02:30:14;;;;;;;57.95;38.95;;;;;;;12.23;100.00;100751.22;5050351;28;20029;-48
2023/05/10 02:32:40;;;;;;;60.38;39.85;;;;;;;12.25;100.00;100746.13;5049988;28;20108;-48
2023/05/10 02:35:07;;;;;;;60.58;40.80;;;;;;;12.25;100.00;100746.13;5049745;28;20029;-49
2023/05/10 02:37:34;;;;;;;56.90;40.42;;;;;;;12.27;100.00;100738.31;5049979;28;20424;-50
2023/05/10 02:40:03;;;;;;;58.50;39.20;;;;;;;12.27;100.00;100741.09;5049468;28;20465;-46
2023/05/10 02:42:30;;;;;;;56.28;39.63;;;;;;;12.30;100.00;100746.81;5050191;28;20082;-47
2023/05/10 02:45:00;;;;;;;60.53;40.65;;;;;;;12.29;100.00;100747.16;5042594;28;20029;-48
2023/05/10 02:47:26;;;;;;;61.95;40.25;;;;;;;12.30;100.00;100738.50;5050400;28;20021;-46
2023/05/10 02:49:51;;;;;;;59.03;39.78;;;;;;;12.33;100.00;100746.19;5050123;28;20082;-46
2023/05/10 02:52:24;;;;;;;59.25;41.65;;;;;;;12.33;100.00;100743.41;5050466;28;20067;-47
2023/05/10 02:54:54;;;;;;;56.15;39.00;;;;;;;12.32;100.00;100744.53;5050362;28;20059;-48
2023/05/10 02:57:25;;;;;;;53.35;37.70;;;;;;;12.32;100.00;100732.66;5050577;28;20036;-47
2023/05/10 02:59:51;;;;;;;56.33;38.97;;;;;;;12.33;100.00;100740.63;5050208;28;20091;-48
2023/05/10 03:02:16;;;;;;;57.30;40.47;;;;;;;12.34;100.00;100741.44;5049654;28;20426;-47
2023/05/10 03:04:41;;;;;;;55.13;39.70;;;;;;;12.36;100.00;100743.91;5050000;28;20427;-48
2023/05/10 03:07:07;;;;;;;56.20;39.33;;;;;;;12.37;100.00;100745.56;5050116;28;20048;-47
2023/05/10 03:09:33;;;;;;;54.35;39.10;;;;;;;12.36;100.00;100741.13;5049412;28;20033;-50
2023/05/10 03:12:10;;;;;;;53.15;38.40;;;;;;;12.33;100.00;100746.19;5049057;28;20037;-46
2023/05/10 03:15:01;;;;;;;55.85;38.92;;;;;;;12.36;100.00;100741.13;5049603;28;20101;-46
2023/05/10 03:17:36;;;;;;;56.80;40.05;;;;;;;12.35;100.00;100742.28;5053706;28;20107;-47
2023/05/10 03:20:11;;;;;;;56.35;39.60;;;;;;;12.38;100.00;100748.00;5053211;28;20129;-46
2023/05/10 03:22:52;;;;;;;59.53;41.95;;;;;;;12.37;100.00;100742.78;5053374;28;20035;-47
2023/05/10 03:25:20;;;;;;;60.00;42.38;;;;;;;12.33;100.00;100746.19;5054003;28;20032;-45
2023/05/10 03:27:47;;;;;;;61.40;42.08;;;;;;;12.35;100.00;100748.63;5053926;28;20030;-47
2023/05/10 03:30:13;;;;;;;58.35;41.60;;;;;;;12.36;100.00;100757.78;5053567;28;20032;-47
2023/05/10 03:32:38;;;;;;;59.85;43.13;;;;;;;12.36;100.00;100749.47;5053137;28;20040;-48
2023/05/10 03:35:13;;;;;;;59.75;44.58;;;;;;;12.33;100.00;100756.44;5053509;28;20021;-50
2023/05/10 03:37:39;;;;;;;60.42;43.70;;;;;;;12.34;100.00;100758.09;5053465;28;20056;-49
2023/05/10 03:40:05;;;;;;;64.25;44.72;;;;;;;12.32;100.00;100757.59;5053186;28;20132;-50
2023/05/10 03:42:31;;;;;;;63.97;45.53;;;;;;;12.35;100.00;100761.69;5050806;28;20021;-50
2023/05/10 03:44:56;;;;;;;64.43;44.47;;;;;;;12.33;100.00;100765.59;5053727;28;20037;-48
2023/05/10 03:47:21;;;;;;;61.95;44.10;;;;;;;12.34;100.00;100763.63;5053372;28;20028;-48
2023/05/10 03:49:47;;;;;;;63.67;44.08;;;;;;;12.36;100.00;100761.38;5053408;28;20116;-47
2023/05/10 03:52:12;;;;;;;64.57;45.53;;;;;;;12.37;100.00;100771.31;5053501;28;20124;-46
2023/05/10 03:54:37;;;;;;;62.00;43.88;;;;;;;12.38;100.00;100770.19;5052108;28;20091;-45
2023/05/10 03:57:03;;;;;;;62.03;44.83;;;;;;;12.36;100.00;100764.13;5053268;28;20120;-50
2023/05/10 03:59:28;;;;;;;63.03;43.40;;;;;;;12.36;100.00;100768.88;5053400;28;20068;-48
2023/05/10 04:01:54;;;;;;;63.47;45.58;;;;;;;12.36;100.00;100769.69;5053118;28;20067;-49
2023/05/10 04:04:20;;;;;;;62.83;43.53;;;;;;;12.33;100.00;100776.69;5053108;28;20023;-48
2023/05/10 04:06:46;;;;;;;59.75;42.50;;;;;;;12.33;100.00;100773.94;5053583;28;20094;-46
2023/05/10 04:09:11;;;;;;;57.55;41.28;;;;;;;12.30;100.00;100774.56;5053140;28;20473;-47
2023/05/10 04:11:37;;;;;;;53.40;39.35;;;;;;;12.29;100.00;100775.69;5053171;28;20029;-50
2023/05/10 04:14:02;;;;;;;53.70;38.92;;;;;;;12.29;100.00;100772.09;5053319;28;20029;-49
2023/05/10 04:16:27;;;;;;;52.78;39.60;;;;;;;12.28;100.00;100779.59;5053106;28;20048;-46
2023/05/10 04:18:53;;;;;;;50.75;36.50;;;;;;;12.29;100.00;100781.22;5053387;28;20032;-45
2023/05/10 04:21:18;;;;;;;52.58;38.65;;;;;;;12.26;100.00;100781.06;5053124;28;20055;-48
2023/05/10 04:23:43;;;;;;;50.20;36.25;;;;;;;12.27;100.00;100780.75;5052963;28;20099;-49
2023/05/10 04:26:09;;;;;;;55.03;38.25;;;;;;;12.27;100.00;100785.47;5052196;28;20025;-48
2023/05/10 04:28:34;;;;;;;53.95;36.67;;;;;;;12.24;100.00;100781.38;5050952;28;20047;-50
2023/05/10 04:31:04;;;;;;;50.22;35.28;;;;;;;12.24;100.00;100780.56;5052771;28;20044;-49
2023/05/10 04:33:30;;;;;;;48.40;33.50;;;;;;;12.25;100.00;100784.97;5052608;28;20056;-50
2023/05/10 04:35:55;;;;;;;48.85;34.42;;;;;;;12.21;100.00;100783.97;5052837;28;20115;-47
2023/05/10 04:38:20;;;;;;;49.53;34.22;;;;;;;12.22;100.00;100783.66;5048766;28;20498;-50
2023/05/10 04:40:46;;;;;;;53.13;34.55;;;;;;;12.20;100.00;100779.56;5052381;28;20441;-45
2023/05/10 04:43:11;;;;;;;47.88;34.25;;;;;;;12.23;100.00;100788.06;5052494;28;20033;-46
2023/05/10 04:45:36;;;;;;;50.75;34.05;;;;;;;12.23;100.00;100795.59;5051933;28;20021;-47
2023/05/10 04:48:01;;;;;;;52.42;35.92;;;;;;;12.21;100.00;100793.13;5052205;28;20033;-45
2023/05/10 04:50:27;;;;;;;51.83;35.90;;;;;;;12.18;100.00;100791.00;5051952;28;20090;-47
2023/05/10 04:52:52;;;;;;;50.95;36.90;;;;;;;12.15;100.00;100799.94;5052001;28;20024;-51
2023/05/10 04:55:17;;;;;;;49.00;35.75;;;;;;;12.13;100.00;100800.28;5052113;28;20103;-44
2023/05/10 04:57:42;;;;;;;51.70;35.92;;;;;;;12.11;100.00;100805.31;5052269;28;20548;-47
2023/05/10 05:00:08;;;;;;;50.65;35.08;;;;;;;12.04;100.00;100806.88;5052170;28;20031;-45
2023/05/10 05:02:34;;;;;;;45.38;31.25;;;;;;;12.01;100.00;100805.56;5046439;28;20170;-48
2023/05/10 05:04:59;;;;;;;45.03;32.33;;;;;;;11.93;100.00;100811.84;5041724;28;20025;-47
2023/05/10 05:07:25;;;;;;;43.72;29.63;;;;;;;11.93;100.00;100812.66;5042659;28;20025;-50
2023/05/10 05:09:50;;;;;;;46.03;31.58;;;;;;;11.95;100.00;100809.59;5031838;28;20032;-47
2023/05/10 05:12:15;;;;;;;43.53;31.90;;;;;;;11.96;100.00;100816.75;5032153;28;20770;-47
2023/05/10 05:14:41;;;;;;;42.47;28.77;;;;;;;11.96;100.00;100812.03;5032005;28;20021;-46
2023/05/10 05:17:06;;;;;;;42.63;28.77;;;;;;;11.95;100.00;100817.91;5032144;28;20393;-49
2023/05/10 05:19:32;;;;;;;40.15;28.13;;;;;;;11.97;100.00;100807.28;5032555;28;20393;-49
2023/05/10 05:21:57;;;;;;;39.13;27.63;;;;;;;11.96;100.00;100819.50;5030819;28;20120;-47
2023/05/10 05:24:23;;;;;;;41.90;27.45;;;;;;;12.00;100.00;100821.38;5031945;28;20124;-47
2023/05/10 05:26:48;;;;;;;40.85;28.33;;;;;;;12.06;100.00;100818.47;5031652;28;20037;-46
2023/05/10 05:29:13;;;;;;;41.35;28.33;;;;;;;12.11;100.00;100827.50;5031633;28;20025;-46
2023/05/10 05:31:39;;;;;;;42.55;28.48;;;;;;;12.10;100.00;100823.06;5027990;28;20115;-48
2023/05/10 05:34:04;;;;;;;40.10;28.25;;;;;;;12.15;100.00;100824.91;5026525;28;20025;-50
2023/05/10 05:36:31;;;;;;;40.45;28.90;;;;;;;12.22;100.00;100819.72;5031480;28;20108;-45
2023/05/10 05:38:56;;;;;;;41.50;28.23;;;;;;;12.31;100.00;100814.22;5031285;28;20096;-46
2023/05/10 05:41:21;;;;;;;41.22;28.95;;;;;;;12.42;100.00;100826.66;5031317;28;20021;-46
2023/05/10 05:43:46;;;;;;;39.67;28.13;;;;;;;12.51;100.00;100823.94;5031440;28;20033;-49
2023/05/10 05:46:12;;;;;;;41.60;28.17;;;;;;;12.54;100.00;100822.47;5031422;28;20112;-50
2023/05/10 05:48:37;;;;;;;42.15;27.15;;;;;;;12.67;100.00;100827.09;5031086;28;20036;-49
2023/05/10 05:51:02;;;;;;;38.53;27.00;;;;;;;12.77;100.00;100825.97;5031171;28;20427;-47
2023/05/10 05:53:28;;;;;;;39.90;29.13;;;;;;;12.83;100.00;100823.88;5031138;28;20025;-46
2023/05/10 05:55:55;;;;;;;38.85;26.98;;;;;;;12.93;100.00;100829.97;5029771;28;20064;-45
2023/05/10 05:58:21;;;;;;;37.65;27.20;;;;;;;13.01;100.00;100833.09;5029783;28;20025;-47
2023/05/10 06:00:46;;;;;;;35.45;25.92;;;;;;;13.09;100.00;100832.28;5031200;28;20072;-49
2023/05/10 06:03:12;;;;;;;38.20;28.48;;;;;;;13.07;100.00;100832.63;5030830;28;20441;-48
2023/05/10 06:05:37;;;;;;;38.63;27.48;;;;;;;13.03;100.00;100834.38;5031112;28;20048;-49
2023/05/10 06:08:03;;;;;;;37.08;27.63;;;;;;;13.01;100.00;100841.41;5031066;28;20033;-52
2023/05/10 06:10:28;;;;;;;38.90;27.48;;;;;;;13.06;100.00;100836.53;5029916;28;20030;-48
2023/05/10 06:12:53;;;;;;;38.95;28.25;;;;;;;13.13;100.00;100840.78;5028936;28;20099;-47
2023/05/10 06:15:19;;;;;;;36.53;27.10;;;;;;;13.19;100.00;100845.03;5029581;28;20032;-48
2023/05/10 06:17:44;;;;;;;37.40;26.15;;;;;;;13.20;100.00;100846.66;5028994;28;20469;-45
2023/05/10 06:20:10;;;;;;;38.45;27.17;;;;;;;13.19;100.00;100851.41;5027799;28;20454;-45
2023/05/10 06:22:36;;;;;;;37.15;27.05;;;;;;;13.14;100.00;100859.09;5029108;28;20044;-50
2023/05/10 06:25:01;;;;;;;36.90;26.95;;;;;;;13.09;100.00;100865.59;5030188;28;20057;-47
2023/05/10 06:27:27;;;;;;;37.78;26.75;;;;;;;13.05;100.00;100868.22;5030906;28;20056;-46
2023/05/10 06:29:52;;;;;;;37.97;28.35;;;;;;;12.95;100.00;100861.00;5030848;28;20128;-45
2023/05/10 06:32:17;;;;;;;38.22;26.45;;;;;;;12.94;100.00;100850.22;5030797;28;20127;-44
2023/05/10 06:34:44;;;;;;;37.60;27.30;;;;;;;12.90;100.00;100857.53;5030821;28;20079;-45
2023/05/10 06:37:09;;;;;;;38.70;28.92;;;;;;;12.84;100.00;100856.88;5029689;28;20037;-47
2023/05/10 06:39:34;;;;;;;41.17;27.60;;;;;;;12.78;100.00;100864.53;5028870;28;20410;-45
2023/05/10 06:42:01;;;;;;;41.67;28.10;;;;;;;12.78;100.00;100869.25;5028871;28;20025;-44
2023/05/10 06:44:26;;;;;;;37.83;27.60;;;;;;;12.81;100.00;100860.28;5029005;28;20102;-45
2023/05/10 06:46:53;;;;;;;39.53;28.55;;;;;;;12.82;100.00;100870.28;5028624;28;20473;-45
2023/05/10 06:49:18;;;;;;;41.83;28.73;;;;;;;12.83;100.00;100874.69;5028863;28;20044;-47
2023/05/10 06:51:43;;;;;;;39.95;28.77;;;;;;;12.82;100.00;100870.28;5032359;28;20033;-45
2023/05/10 06:54:09;;;;;;;43.88;30.08;;;;;;;12.86;100.00;100876.00;5032536;28;20115;-46
2023/05/10 06:56:34;;;;;;;43.65;30.60;;;;;;;12.91;100.00;100878.63;5030704;28;20025;-46
2023/05/10 06:58:59;;;;;;;41.38;29.13;;;;;;;12.96;100.00;100878.47;5030971;28;20508;-45
2023/05/10 07:01:25;;;;;;;41.38;29.00;;;;;;;12.99;100.00;100882.56;5030885;28;20021;-45
2023/05/10 07:03:50;;;;;;;39.53;29.15;;;;;;;12.98;100.00;100880.94;5032412;28;20068;-45
2023/05/10 07:06:15;;;;;;;38.45;27.17;;;;;;;13.04;100.00;100880.47;5032406;28;20025;-46
2023/05/10 07:08:40;;;;;;;41.75;29.23;;;;;;;13.09;100.00;100887.81;5032149;28;20384;-46
2023/05/10 07:11:10;;;;;;;43.08;30.25;;;;;;;13.14;100.00;100886.88;5032096;28;20026;-46
2023/05/10 07:13:36;;;;;;;41.45;29.73;;;;;;;13.20;100.00;100889.16;5032354;28;20087;-47
2023/05/10 07:16:01;;;;;;;41.65;30.70;;;;;;;13.22;100.00;100894.41;5032016;28;20021;-45
2023/05/10 07:18:27;;;;;;;43.42;30.10;;;;;;;13.25;100.00;100902.09;5032100;28;20377;-47
2023/05/10 07:20:52;;;;;;;43.72;31.05;;;;;;;13.22;100.00;100903.56;5032029;28;20025;-46
2023/05/10 07:23:18;;;;;;;41.38;31.00;;;;;;;13.11;100.00;100902.22;5032062;28;20112;-48
2023/05/10 07:25:53;;;;;;;40.75;29.42;;;;;;;13.09;100.00;100902.53;5031990;28;20035;-46
2023/05/10 07:28:19;;;;;;;41.85;31.05;;;;;;;13.03;100.00;100903.00;5031915;28;20485;-47
2023/05/10 07:30:45;;;;;;;43.40;31.08;;;;;;;12.99;100.00;100913.91;5031765;28;20037;-47
2023/05/10 07:33:12;;;;;;;41.47;31.25;;;;;;;12.97;100.00;100918.16;5032131;28;20088;-47
2023/05/10 07:35:37;;;;;;;43.67;31.40;;;;;;;12.93;100.00;100915.22;5040604;28;20028;-46
2023/05/10 07:38:02;;;;;;;41.30;30.25;;;;;;;12.89;100.00;100909.47;5042980;28;20063;-47
2023/05/10 07:40:28;;;;;;;44.17;30.02;;;;;;;12.86;100.00;100920.41;5045497;28;20353;-46
2023/05/10 07:42:54;;;;;;;45.15;32.33;;;;;;;12.69;100.00;100916.44;5050267;28;20525;-46
2023/05/10 07:45:19;;;;;;;43.85;31.40;;;;;;;12.71;100.00;100921.66;5050654;28;20025;-46
2023/05/10 07:47:45;;;;;;;44.97;31.33;;;;;;;12.75;100.00;100919.88;5051272;28;20027;-50
2023/05/10 07:50:10;;;;;;;41.22;30.02;;;;;;;12.76;100.00;100927.03;5051251;28;20373;-47
2023/05/10 07:52:35;;;;;;;41.13;29.38;;;;;;;12.78;100.00;100924.78;5051363;28;20035;-44
2023/05/10 07:55:01;;;;;;;41.85;30.48;;;;;;;12.81;100.00;100929.69;5050594;28;20108;-47
2023/05/10 07:57:26;;;;;;;42.30;29.48;;;;;;;12.84;100.00;100933.78;5048644;28;20207;-45
2023/05/10 07:59:51;;;;;;;40.72;29.05;;;;;;;12.85;100.00;100939.00;5051153;28;20025;-47
2023/05/10 08:02:17;;;;;;;44.55;30.17;;;;;;;12.87;100.00;100942.28;5050840;28;20531;-46
2023/05/10 08:04:42;;;;;;;37.70;28.65;;;;;;;12.82;100.00;100934.13;5051037;28;20028;-45
2023/05/10 08:07:07;;;;;;;38.50;28.65;;;;;;;12.85;100.00;100941.78;5050551;28;20087;-44
2023/05/10 08:09:33;;;;;;;39.70;27.83;;;;;;;12.91;100.00;100943.31;5050328;28;20033;-45
2023/05/10 08:11:59;;;;;;;41.75;29.48;;;;;;;13.02;100.00;100943.84;5051538;28;20115;-45
2023/05/10 08:14:25;;;;;;;37.05;28.40;;;;;;;13.16;100.00;100948.47;5052068;28;20036;-47
2023/05/10 08:16:50;;;;;;;40.72;29.77;;;;;;;13.24;100.00;100942.94;5050282;28;20029;-46
2023/05/10 08:19:18;;;;;;;41.70;29.70;;;;;;;13.33;100.00;100951.31;5048975;28;20029;-46
2023/05/10 08:21:44;;;;;;;39.55;28.48;;;;;;;13.40;100.00;100961.97;5049233;28;20524;-46
2023/05/10 08:24:09;;;;;;;40.40;28.67;;;;;;;13.36;100.00;100953.44;5047835;28;20021;-46
2023/05/10 08:26:35;;;;;;;38.15;27.10;;;;;;;13.37;100.00;100957.03;5047176;28;20048;-47
2023/05/10 08:29:00;;;;;;;36.08;26.73;;;;;;;13.39;100.00;100960.34;5045428;28;20099;-47
2023/05/10 08:31:25;;;;;;;35.63;25.95;;;;;;;13.52;100.00;100970.50;5047061;28;20039;-46
2023/05/10 08:33:52;;;;;;;34.78;24.85;;;;;;;13.57;100.00;100973.13;5048854;28;20040;-46
2023/05/10 08:36:21;;;;;;;30.58;23.95;;;;;;;13.70;100.00;100971.38;5049012;28;20263;-49
2023/05/10 08:38:47;;;;;;;32.63;24.70;;;;;;;13.88;100.00;100961.09;5049000;28;20128;-45
2023/05/10 08:41:13;;;;;;;32.00;24.65;;;;;;;14.10;100.00;100969.59;5050345;28;20131;-45
2023/05/10 08:43:39;;;;;;;34.20;25.42;;;;;;;14.26;100.00;100981.88;5049190;28;20036;-47
2023/05/10 08:46:05;;;;;;;32.85;24.05;;;;;;;14.37;100.00;100981.53;5050473;28;20059;-46
2023/05/10 08:48:34;;;;;;;31.23;24.35;;;;;;;14.46;100.00;100974.00;5050575;28;20098;-48
2023/05/10 08:51:01;;;;;;;30.02;22.02;;;;;;;14.48;100.00;100982.84;5050556;28;20090;-47
2023/05/10 08:53:30;;;;;;;28.33;22.45;;;;;;;14.48;100.00;100985.63;5050485;28;20029;-45
2023/05/10 08:55:56;;;;;;;29.63;22.73;;;;;;;14.49;100.00;100982.50;5050166;28;20477;-47
2023/05/10 08:58:21;;;;;;;29.83;22.20;;;;;;;14.51;100.00;100993.28;5048778;28;20082;-47
2023/05/10 09:00:50;;;;;;;31.02;22.38;;;;;;;14.44;100.00;100985.47;5050116;28;20112;-49
2023/05/10 09:03:16;;;;;;;28.35;22.13;;;;;;;14.36;100.00;100989.06;5044925;28;20029;-45
2023/05/10 09:05:42;;;;;;;30.00;22.52;;;;;;;14.31;100.00;100992.81;5030069;28;20040;-45
2023/05/10 09:08:08;;;;;;;30.30;22.73;;;;;;;14.26;100.00;100993.00;5030084;28;20028;-47
2023/05/10 09:10:34;;;;;;;30.80;21.48;;;;;;;14.19;100.00;100990.69;5029946;28;20029;-46
2023/05/10 09:13:00;;;;;;;28.63;21.92;;;;;;;14.19;100.00;100992.69;5028246;28;20040;-46
2023/05/10 09:15:25;;;;;;;27.58;21.35;;;;;;;14.17;100.00;100998.56;5030131;28;20405;-45
2023/05/10 09:17:51;;;;;;;27.25;19.63;;;;;;;14.14;100.00;101007.56;5029990;28;20031;-45
2023/05/10 09:20:17;;;;;;;26.63;20.50;;;;;;;14.16;100.00;101004.44;5029820;28;20453;-47
2023/05/10 09:22:43;;;;;;;27.25;20.52;;;;;;;14.14;100.00;101010.34;5029795;28;20041;-47
2023/05/10 09:25:13;;;;;;;26.17;20.25;;;;;;;14.07;100.00;101012.81;5028239;28;20191;-45
2023/05/10 09:27:40;;;;;;;27.30;20.55;;;;;;;14.08;100.00;101016.41;5030072;28;20025;-45
2023/05/10 09:30:06;;;;;;;28.55;21.08;;;;;;;14.02;100.00;101012.94;5029658;28;20458;-46
2023/05/10 09:32:38;;;;;;;25.35;20.63;;;;;;;14.05;100.00;101020.66;5029794;28;20032;-46
2023/05/10 09:35:21;;;;;;;28.30;19.73;;;;;;;14.03;100.00;101020.16;5029499;28;20083;-46
2023/05/10 09:37:49;;;;;;;25.33;19.75;;;;;;;13.94;100.00;101017.34;5029492;28;20132;-47
2023/05/10 09:40:20;;;;;;;26.25;19.33;;;;;;;13.91;100.00;101022.75;5029515;28;20115;-47
2023/05/10 09:43:03;;;;;;;24.38;18.17;;;;;;;13.93;100.00;101029.66;5029186;28;20044;-47
2023/05/10 09:45:30;;;;;;;26.25;18.42;;;;;;;13.92;100.00;101025.22;5029585;28;20033;-47
2023/05/10 09:47:56;;;;;;;25.88;18.45;;;;;;;13.89;100.00;101031.41;5029242;28;20029;-46
2023/05/10 09:50:22;;;;;;;25.58;18.90;;;;;;;13.91;100.00;101031.09;5029290;28;20087;-45
2023/05/10 09:52:52;;;;;;;25.70;19.17;;;;;;;13.95;100.00;101037.66;5029142;28;20041;-47
2023/05/10 09:55:19;;;;;;;25.40;19.08;;;;;;;14.04;100.00;101032.91;5027757;28;20029;-46
2023/05/10 09:57:46;;;;;;;27.23;18.85;;;;;;;14.17;100.00;101031.94;5025890;28;20037;-46
2023/05/10 10:00:17;;;;;;;25.08;18.42;;;;;;;14.38;100.00;101020.16;5029427;28;20414;-47
2023/05/10 10:02:42;;;;;;;24.25;18.85;;;;;;;14.68;100.00;101033.44;5028974;28;20068;-46
2023/05/10 10:05:08;;;;;;;27.42;19.17;;;;;;;14.82;100.00;101034.91;5029462;28;20056;-48
2023/05/10 10:07:34;;;;;;;24.48;17.95;;;;;;;14.98;100.00;101029.59;5029216;28;20068;-46
2023/05/10 10:10:00;;;;;;;24.50;17.95;;;;;;;15.07;100.00;101034.31;5029243;28;20021;-47
2023/05/10 10:12:26;;;;;;;24.83;17.80;;;;;;;15.25;100.00;101021.16;5028864;28;20041;-46
2023/05/10 10:14:52;;;;;;;23.52;17.65;;;;;;;15.44;100.00;101031.91;5028832;28;20109;-48
2023/05/10 10:17:19;;;;;;;24.48;18.05;;;;;;;15.66;100.00;101027.19;5028878;28;20048;-47
2023/05/10 10:19:45;;;;;;;23.50;16.98;;;;;;;15.91;100.00;101036.59;5028950;28;20037;-45
2023/05/10 10:22:11;;;;;;;23.13;16.35;;;;;;;16.08;100.00;101043.22;5028783;28;20048;-46
2023/05/10 10:24:39;;;;;;;22.45;16.27;;;;;;;16.13;94.83;101041.03;5029203;28;20029;-46
2023/05/10 10:27:15;;;;;;;23.63;17.30;;;;;;;16.29;96.50;101032.88;5032926;28;20029;-45
2023/05/10 10:30:03;;;;;;;22.92;16.45;;;;;;;16.46;97.67;101042.28;5032989;28;20120;-46
2023/05/10 10:32:46;;;;;;;22.63;17.42;;;;;;;16.76;97.77;101036.56;5033035;28;20045;-45
2023/05/10 10:35:11;;;;;;;22.38;16.65;;;;;;;16.97;97.81;101036.53;5033018;28;20095;-47
2023/05/10 10:37:50;;;;;;;22.90;16.67;;;;;;;17.00;96.01;101033.06;5032543;28;20057;-44
2023/05/10 10:40:32;;;;;;;22.20;15.85;;;;;;;16.89;92.20;101031.84;5032668;28;20025;-45
2023/05/10 10:43:18;;;;;;;22.45;15.30;;;;;;;16.64;89.83;101034.56;5032840;28;20036;-47
2023/05/10 10:45:47;;;;;;;22.10;15.23;;;;;;;16.40;89.30;101029.69;5031687;28;20049;-47
2023/05/10 10:48:22;;;;;;;21.70;15.93;;;;;;;16.11;91.19;101031.38;5032759;28;20036;-46
2023/05/10 10:50:56;;;;;;;22.60;16.55;;;;;;;15.79;91.65;101031.72;5032595;28;20037;-46
2023/05/10 10:53:21;;;;;;;22.05;16.10;;;;;;;15.59;93.57;101038.88;5031450;28;20076;-46
2023/05/10 10:55:47;;;;;;;23.17;17.63;;;;;;;15.40;97.92;101044.88;5032761;28;20030;-46
2023/05/10 10:58:30;;;;;;;25.50;19.92;;;;;;;15.18;100.00;101045.94;5031065;28;20037;-47
2023/05/10 11:01:15;;;;;;;32.08;21.23;;;;;;;14.95;100.00;101049.78;5032695;28;20033;-47
2023/05/10 11:04:01;;;;;;;28.10;21.25;;;;;;;14.64;100.00;101041.63;5032611;28;20026;-49